sensor_id;sensor_type;location;lat;lon;timestamp;temperature;humidity
13115;DHT22;6623;52.120;8.660;2024-02-28T00:02:08;19.00;41.70
13115;DHT22;6623;52.120;8.660;2024-02-28T00:04:33;19.00;41.70
13115;DHT22;6623;52.120;8.660;2024-02-28T00:06:59;19.00;41.70
13115;DHT22;6623;52.120;8.660;2024-02-28T00:09:24;19.10;41.70
13115;DHT22;6623;52.120;8.660;2024-02-28T00:11:50;19.00;42.30
13115;DHT22;6623;52.120;8.660;2024-02-28T00:14:16;19.00;41.70
13115;DHT22;6623;52.120;8.660;2024-02-28T00:16:42;19.00;41.60
13115;DHT22;6623;52.120;8.660;2024-02-28T00:19:08;19.00;41.70
13115;DHT22;6623;52.120;8.660;2024-02-28T00:21:34;19.00;41.60
13115;DHT22;6623;52.120;8.660;2024-02-28T00:23:59;19.00;41.60
13115;DHT22;6623;52.120;8.660;2024-02-28T00:26:25;19.00;41.60
13115;DHT22;6623;52.120;8.660;2024-02-28T00:28:50;19.00;41.60
13115;DHT22;6623;52.120;8.660;2024-02-28T00:31:16;19.00;41.60
13115;DHT22;6623;52.120;8.660;2024-02-28T00:33:41;19.00;41.60
13115;DHT22;6623;52.120;8.660;2024-02-28T00:36:07;19.00;41.60
13115;DHT22;6623;52.120;8.660;2024-02-28T00:38:32;19.00;41.60
13115;DHT22;6623;52.120;8.660;2024-02-28T00:40:58;19.00;41.60
13115;DHT22;6623;52.120;8.660;2024-02-28T00:43:23;19.00;41.60
13115;DHT22;6623;52.120;8.660;2024-02-28T00:45:49;19.00;41.60
13115;DHT22;6623;52.120;8.660;2024-02-28T00:48:14;19.00;41.60
13115;DHT22;6623;52.120;8.660;2024-02-28T00:50:40;19.00;41.50
13115;DHT22;6623;52.120;8.660;2024-02-28T00:53:05;19.00;41.60
13115;DHT22;6623;52.120;8.660;2024-02-28T00:55:31;19.00;41.60
13115;DHT22;6623;52.120;8.660;2024-02-28T00:57:56;19.00;41.50
13115;DHT22;6623;52.120;8.660;2024-02-28T01:00:22;19.00;41.50
13115;DHT22;6623;52.120;8.660;2024-02-28T01:02:47;19.00;41.50
13115;DHT22;6623;52.120;8.660;2024-02-28T01:05:13;19.00;41.60
13115;DHT22;6623;52.120;8.660;2024-02-28T01:07:38;19.00;41.50
13115;DHT22;6623;52.120;8.660;2024-02-28T01:10:04;19.00;41.50
13115;DHT22;6623;52.120;8.660;2024-02-28T01:12:30;19.00;41.50
13115;DHT22;6623;52.120;8.660;2024-02-28T01:14:55;19.00;41.50
13115;DHT22;6623;52.120;8.660;2024-02-28T01:17:21;19.00;41.50
13115;DHT22;6623;52.120;8.660;2024-02-28T01:19:47;19.00;41.50
13115;DHT22;6623;52.120;8.660;2024-02-28T01:22:12;19.00;41.50
13115;DHT22;6623;52.120;8.660;2024-02-28T01:24:38;19.00;41.50
13115;DHT22;6623;52.120;8.660;2024-02-28T01:27:03;19.00;41.50
13115;DHT22;6623;52.120;8.660;2024-02-28T01:29:29;19.00;41.50
13115;DHT22;6623;52.120;8.660;2024-02-28T01:31:55;19.00;41.50
13115;DHT22;6623;52.120;8.660;2024-02-28T01:34:21;19.00;41.50
13115;DHT22;6623;52.120;8.660;2024-02-28T01:36:46;19.00;41.50
13115;DHT22;6623;52.120;8.660;2024-02-28T01:39:12;19.00;41.40
13115;DHT22;6623;52.120;8.660;2024-02-28T01:41:37;19.00;41.40
13115;DHT22;6623;52.120;8.660;2024-02-28T01:44:03;19.00;41.50
13115;DHT22;6623;52.120;8.660;2024-02-28T01:46:29;19.00;41.50
13115;DHT22;6623;52.120;8.660;2024-02-28T01:48:55;19.00;41.40
13115;DHT22;6623;52.120;8.660;2024-02-28T01:51:22;18.90;41.40
13115;DHT22;6623;52.120;8.660;2024-02-28T01:53:50;18.90;41.40
13115;DHT22;6623;52.120;8.660;2024-02-28T01:56:16;18.90;41.40
13115;DHT22;6623;52.120;8.660;2024-02-28T01:58:44;19.00;41.40
13115;DHT22;6623;52.120;8.660;2024-02-28T02:01:12;18.90;41.30
13115;DHT22;6623;52.120;8.660;2024-02-28T02:03:38;18.90;41.30
13115;DHT22;6623;52.120;8.660;2024-02-28T02:06:04;19.00;41.40
13115;DHT22;6623;52.120;8.660;2024-02-28T02:08:30;18.90;41.40
13115;DHT22;6623;52.120;8.660;2024-02-28T02:10:56;18.90;41.30
13115;DHT22;6623;52.120;8.660;2024-02-28T02:13:22;19.00;41.40
13115;DHT22;6623;52.120;8.660;2024-02-28T02:15:47;19.00;41.40
13115;DHT22;6623;52.120;8.660;2024-02-28T02:18:13;18.90;41.30
13115;DHT22;6623;52.120;8.660;2024-02-28T02:20:43;19.00;41.40
13115;DHT22;6623;52.120;8.660;2024-02-28T02:23:09;19.00;41.30
13115;DHT22;6623;52.120;8.660;2024-02-28T02:25:46;19.00;41.30
13115;DHT22;6623;52.120;8.660;2024-02-28T02:28:12;18.90;41.20
13115;DHT22;6623;52.120;8.660;2024-02-28T02:30:38;19.00;41.30
13115;DHT22;6623;52.120;8.660;2024-02-28T02:33:07;19.00;41.30
13115;DHT22;6623;52.120;8.660;2024-02-28T02:35:33;19.00;41.30
13115;DHT22;6623;52.120;8.660;2024-02-28T02:37:59;19.00;41.30
13115;DHT22;6623;52.120;8.660;2024-02-28T02:40:25;19.00;41.30
13115;DHT22;6623;52.120;8.660;2024-02-28T02:42:50;19.00;41.90
13115;DHT22;6623;52.120;8.660;2024-02-28T02:45:16;19.00;41.20
13115;DHT22;6623;52.120;8.660;2024-02-28T02:47:42;19.00;41.20
13115;DHT22;6623;52.120;8.660;2024-02-28T02:50:09;19.10;41.20
13115;DHT22;6623;52.120;8.660;2024-02-28T02:52:35;19.10;41.10
13115;DHT22;6623;52.120;8.660;2024-02-28T02:55:01;19.20;41.10
13115;DHT22;6623;52.120;8.660;2024-02-28T02:57:26;19.30;41.00
13115;DHT22;6623;52.120;8.660;2024-02-28T02:59:52;19.30;40.90
13115;DHT22;6623;52.120;8.660;2024-02-28T03:02:17;19.40;40.90
13115;DHT22;6623;52.120;8.660;2024-02-28T03:04:43;19.50;40.80
13115;DHT22;6623;52.120;8.660;2024-02-28T03:07:08;19.50;40.70
13115;DHT22;6623;52.120;8.660;2024-02-28T03:09:34;19.60;40.60
13115;DHT22;6623;52.120;8.660;2024-02-28T03:11:59;19.70;40.50
13115;DHT22;6623;52.120;8.660;2024-02-28T03:14:25;19.80;40.50
13115;DHT22;6623;52.120;8.660;2024-02-28T03:16:52;19.80;40.40
13115;DHT22;6623;52.120;8.660;2024-02-28T03:19:19;19.90;40.20
13115;DHT22;6623;52.120;8.660;2024-02-28T03:21:44;19.90;40.10
13115;DHT22;6623;52.120;8.660;2024-02-28T03:24:10;20.00;40.00
13115;DHT22;6623;52.120;8.660;2024-02-28T03:26:35;20.00;40.00
13115;DHT22;6623;52.120;8.660;2024-02-28T03:29:01;20.10;39.90
13115;DHT22;6623;52.120;8.660;2024-02-28T03:31:27;20.20;39.80
13115;DHT22;6623;52.120;8.660;2024-02-28T03:33:53;20.20;39.70
13115;DHT22;6623;52.120;8.660;2024-02-28T03:36:18;20.30;39.70
13115;DHT22;6623;52.120;8.660;2024-02-28T03:38:44;20.30;39.60
13115;DHT22;6623;52.120;8.660;2024-02-28T03:41:09;20.30;39.40
13115;DHT22;6623;52.120;8.660;2024-02-28T03:43:35;20.40;39.40
13115;DHT22;6623;52.120;8.660;2024-02-28T03:46:01;20.40;39.40
13115;DHT22;6623;52.120;8.660;2024-02-28T03:48:27;20.30;39.30
13115;DHT22;6623;52.120;8.660;2024-02-28T03:50:52;20.30;39.30
13115;DHT22;6623;52.120;8.660;2024-02-28T03:53:18;20.30;39.30
13115;DHT22;6623;52.120;8.660;2024-02-28T03:55:43;20.20;39.30
13115;DHT22;6623;52.120;8.660;2024-02-28T03:58:10;20.20;39.40
13115;DHT22;6623;52.120;8.660;2024-02-28T04:00:35;20.10;39.30
13115;DHT22;6623;52.120;8.660;2024-02-28T04:03:01;20.10;39.40
13115;DHT22;6623;52.120;8.660;2024-02-28T04:05:28;20.00;39.40
13115;DHT22;6623;52.120;8.660;2024-02-28T04:07:54;20.00;39.50
13115;DHT22;6623;52.120;8.660;2024-02-28T04:10:19;19.90;39.50
13115;DHT22;6623;52.120;8.660;2024-02-28T04:12:45;19.90;39.50
13115;DHT22;6623;52.120;8.660;2024-02-28T04:15:11;19.80;39.60
13115;DHT22;6623;52.120;8.660;2024-02-28T04:17:38;19.80;40.30
13115;DHT22;6623;52.120;8.660;2024-02-28T04:20:07;19.70;39.70
13115;DHT22;6623;52.120;8.660;2024-02-28T04:22:33;19.70;39.80
13115;DHT22;6623;52.120;8.660;2024-02-28T04:24:58;19.70;39.80
13115;DHT22;6623;52.120;8.660;2024-02-28T04:27:24;19.60;39.70
13115;DHT22;6623;52.120;8.660;2024-02-28T04:29:50;19.60;39.70
13115;DHT22;6623;52.120;8.660;2024-02-28T04:32:15;19.50;39.70
13115;DHT22;6623;52.120;8.660;2024-02-28T04:34:40;19.50;39.70
13115;DHT22;6623;52.120;8.660;2024-02-28T04:37:06;19.50;39.90
13115;DHT22;6623;52.120;8.660;2024-02-28T04:39:31;19.40;39.90
13115;DHT22;6623;52.120;8.660;2024-02-28T04:41:57;19.40;39.90
13115;DHT22;6623;52.120;8.660;2024-02-28T04:44:23;19.40;40.00
13115;DHT22;6623;52.120;8.660;2024-02-28T04:46:48;19.40;40.00
13115;DHT22;6623;52.120;8.660;2024-02-28T04:49:14;19.30;40.00
13115;DHT22;6623;52.120;8.660;2024-02-28T04:51:39;19.30;40.00
13115;DHT22;6623;52.120;8.660;2024-02-28T04:54:05;19.30;40.10
13115;DHT22;6623;52.120;8.660;2024-02-28T04:56:30;19.30;40.10
13115;DHT22;6623;52.120;8.660;2024-02-28T04:58:56;19.20;40.00
13115;DHT22;6623;52.120;8.660;2024-02-28T05:01:22;19.20;40.10
13115;DHT22;6623;52.120;8.660;2024-02-28T05:03:48;19.20;40.10
13115;DHT22;6623;52.120;8.660;2024-02-28T05:06:13;19.20;40.10
13115;DHT22;6623;52.120;8.660;2024-02-28T05:08:39;19.20;40.20
13115;DHT22;6623;52.120;8.660;2024-02-28T05:11:04;19.20;40.20
13115;DHT22;6623;52.120;8.660;2024-02-28T05:13:30;19.20;40.20
13115;DHT22;6623;52.120;8.660;2024-02-28T05:15:55;19.10;40.20
13115;DHT22;6623;52.120;8.660;2024-02-28T05:18:21;19.10;40.20
13115;DHT22;6623;52.120;8.660;2024-02-28T05:20:46;19.10;40.20
13115;DHT22;6623;52.120;8.660;2024-02-28T05:23:12;19.10;40.30
13115;DHT22;6623;52.120;8.660;2024-02-28T05:25:38;19.10;40.30
13115;DHT22;6623;52.120;8.660;2024-02-28T05:28:03;19.10;40.30
13115;DHT22;6623;52.120;8.660;2024-02-28T05:30:29;19.10;40.30
13115;DHT22;6623;52.120;8.660;2024-02-28T05:32:54;19.10;40.30
13115;DHT22;6623;52.120;8.660;2024-02-28T05:35:20;19.10;40.30
13115;DHT22;6623;52.120;8.660;2024-02-28T05:37:46;19.10;41.00
13115;DHT22;6623;52.120;8.660;2024-02-28T05:40:14;19.00;40.30
13115;DHT22;6623;52.120;8.660;2024-02-28T05:42:40;19.00;40.30
13115;DHT22;6623;52.120;8.660;2024-02-28T05:45:06;19.00;40.30
13115;DHT22;6623;52.120;8.660;2024-02-28T05:47:32;19.00;40.30
13115;DHT22;6623;52.120;8.660;2024-02-28T05:49:57;19.00;40.30
13115;DHT22;6623;52.120;8.660;2024-02-28T05:52:24;19.00;40.30
13115;DHT22;6623;52.120;8.660;2024-02-28T05:54:51;19.00;40.30
13115;DHT22;6623;52.120;8.660;2024-02-28T05:57:16;18.90;40.30
13115;DHT22;6623;52.120;8.660;2024-02-28T05:59:42;19.00;40.40
13115;DHT22;6623;52.120;8.660;2024-02-28T06:02:08;19.00;40.30
13115;DHT22;6623;52.120;8.660;2024-02-28T06:04:33;19.00;40.40
13115;DHT22;6623;52.120;8.660;2024-02-28T06:06:59;18.90;40.30
13115;DHT22;6623;52.120;8.660;2024-02-28T06:09:26;18.90;40.30
13115;DHT22;6623;52.120;8.660;2024-02-28T06:11:52;19.00;40.40
13115;DHT22;6623;52.120;8.660;2024-02-28T06:14:18;18.90;40.30
13115;DHT22;6623;52.120;8.660;2024-02-28T06:16:46;18.90;40.30
13115;DHT22;6623;52.120;8.660;2024-02-28T06:19:12;18.90;40.30
13115;DHT22;6623;52.120;8.660;2024-02-28T06:21:37;18.90;40.40
13115;DHT22;6623;52.120;8.660;2024-02-28T06:24:03;18.90;40.30
13115;DHT22;6623;52.120;8.660;2024-02-28T06:26:30;18.90;40.30
13115;DHT22;6623;52.120;8.660;2024-02-28T06:28:56;18.90;40.30
13115;DHT22;6623;52.120;8.660;2024-02-28T06:31:26;18.90;40.30
13115;DHT22;6623;52.120;8.660;2024-02-28T06:33:52;18.90;40.40
13115;DHT22;6623;52.120;8.660;2024-02-28T06:36:17;18.90;40.40
13115;DHT22;6623;52.120;8.660;2024-02-28T06:38:43;18.90;40.30
13115;DHT22;6623;52.120;8.660;2024-02-28T06:41:08;18.90;40.40
13115;DHT22;6623;52.120;8.660;2024-02-28T06:43:34;18.90;40.40
13115;DHT22;6623;52.120;8.660;2024-02-28T06:46:03;18.90;40.30
13115;DHT22;6623;52.120;8.660;2024-02-28T06:48:29;18.80;40.30
13115;DHT22;6623;52.120;8.660;2024-02-28T06:50:54;18.90;40.30
13115;DHT22;6623;52.120;8.660;2024-02-28T06:53:20;18.90;40.30
13115;DHT22;6623;52.120;8.660;2024-02-28T06:55:45;18.80;40.30
13115;DHT22;6623;52.120;8.660;2024-02-28T06:58:14;18.80;40.30
13115;DHT22;6623;52.120;8.660;2024-02-28T07:00:39;18.90;40.40
13115;DHT22;6623;52.120;8.660;2024-02-28T07:03:05;18.80;40.30
13115;DHT22;6623;52.120;8.660;2024-02-28T07:05:30;18.90;40.30
13115;DHT22;6623;52.120;8.660;2024-02-28T07:07:56;18.90;40.30
13115;DHT22;6623;52.120;8.660;2024-02-28T07:10:21;18.80;40.30
13115;DHT22;6623;52.120;8.660;2024-02-28T07:12:47;18.90;40.30
13115;DHT22;6623;52.120;8.660;2024-02-28T07:15:12;18.80;40.30
13115;DHT22;6623;52.120;8.660;2024-02-28T07:17:37;18.80;40.40
13115;DHT22;6623;52.120;8.660;2024-02-28T07:20:03;18.90;40.40
13115;DHT22;6623;52.120;8.660;2024-02-28T07:22:29;18.80;40.30
13115;DHT22;6623;52.120;8.660;2024-02-28T07:24:55;18.90;40.40
13115;DHT22;6623;52.120;8.660;2024-02-28T07:27:22;18.80;40.30
13115;DHT22;6623;52.120;8.660;2024-02-28T07:29:48;18.80;40.30
13115;DHT22;6623;52.120;8.660;2024-02-28T07:32:14;18.90;40.40
13115;DHT22;6623;52.120;8.660;2024-02-28T07:34:39;18.80;40.30
13115;DHT22;6623;52.120;8.660;2024-02-28T07:37:05;18.90;40.40
13115;DHT22;6623;52.120;8.660;2024-02-28T07:39:30;18.80;40.30
13115;DHT22;6623;52.120;8.660;2024-02-28T07:41:56;18.80;40.90
13115;DHT22;6623;52.120;8.660;2024-02-28T07:44:21;18.80;40.30
13115;DHT22;6623;52.120;8.660;2024-02-28T07:46:47;18.80;40.30
13115;DHT22;6623;52.120;8.660;2024-02-28T07:49:13;18.90;40.40
13115;DHT22;6623;52.120;8.660;2024-02-28T07:51:38;18.80;40.30
13115;DHT22;6623;52.120;8.660;2024-02-28T07:54:05;18.80;40.40
13115;DHT22;6623;52.120;8.660;2024-02-28T07:56:31;18.80;40.30
13115;DHT22;6623;52.120;8.660;2024-02-28T07:58:57;18.80;40.40
13115;DHT22;6623;52.120;8.660;2024-02-28T08:01:22;18.80;40.30
13115;DHT22;6623;52.120;8.660;2024-02-28T08:03:48;18.80;40.30
13115;DHT22;6623;52.120;8.660;2024-02-28T08:06:13;18.80;40.40
13115;DHT22;6623;52.120;8.660;2024-02-28T08:08:39;18.80;40.30
13115;DHT22;6623;52.120;8.660;2024-02-28T08:11:04;18.90;40.40
13115;DHT22;6623;52.120;8.660;2024-02-28T08:13:30;18.80;40.30
13115;DHT22;6623;52.120;8.660;2024-02-28T08:15:58;18.90;40.40
13115;DHT22;6623;52.120;8.660;2024-02-28T08:18:23;18.80;40.40
13115;DHT22;6623;52.120;8.660;2024-02-28T08:20:49;18.80;40.40
13115;DHT22;6623;52.120;8.660;2024-02-28T08:23:15;18.80;40.40
13115;DHT22;6623;52.120;8.660;2024-02-28T08:25:40;18.80;40.30
13115;DHT22;6623;52.120;8.660;2024-02-28T08:28:06;18.80;40.40
13115;DHT22;6623;52.120;8.660;2024-02-28T08:30:31;18.80;40.30
13115;DHT22;6623;52.120;8.660;2024-02-28T08:32:59;18.80;40.30
13115;DHT22;6623;52.120;8.660;2024-02-28T08:35:24;18.80;40.40
13115;DHT22;6623;52.120;8.660;2024-02-28T08:37:50;18.90;40.40
13115;DHT22;6623;52.120;8.660;2024-02-28T08:40:15;18.90;40.40
13115;DHT22;6623;52.120;8.660;2024-02-28T08:42:41;18.80;40.30
13115;DHT22;6623;52.120;8.660;2024-02-28T08:45:07;18.80;40.30
13115;DHT22;6623;52.120;8.660;2024-02-28T08:47:33;18.90;40.40
13115;DHT22;6623;52.120;8.660;2024-02-28T08:49:59;18.90;40.40
13115;DHT22;6623;52.120;8.660;2024-02-28T08:52:24;18.90;40.40
13115;DHT22;6623;52.120;8.660;2024-02-28T08:54:50;18.90;40.40
13115;DHT22;6623;52.120;8.660;2024-02-28T08:57:15;18.90;40.40
13115;DHT22;6623;52.120;8.660;2024-02-28T08:59:41;18.90;40.40
13115;DHT22;6623;52.120;8.660;2024-02-28T09:02:07;18.90;40.40
13115;DHT22;6623;52.120;8.660;2024-02-28T09:04:33;18.90;40.40
13115;DHT22;6623;52.120;8.660;2024-02-28T09:06:58;18.90;40.40
13115;DHT22;6623;52.120;8.660;2024-02-28T09:09:24;18.90;40.40
13115;DHT22;6623;52.120;8.660;2024-02-28T09:11:50;18.90;40.40
13115;DHT22;6623;52.120;8.660;2024-02-28T09:14:15;19.00;40.40
13115;DHT22;6623;52.120;8.660;2024-02-28T09:16:41;18.90;40.40
13115;DHT22;6623;52.120;8.660;2024-02-28T09:19:06;18.90;40.40
13115;DHT22;6623;52.120;8.660;2024-02-28T09:21:31;18.90;40.40
13115;DHT22;6623;52.120;8.660;2024-02-28T09:23:57;18.90;40.40
13115;DHT22;6623;52.120;8.660;2024-02-28T09:26:23;19.00;40.40
13115;DHT22;6623;52.120;8.660;2024-02-28T09:28:48;18.90;40.40
13115;DHT22;6623;52.120;8.660;2024-02-28T09:31:14;18.90;40.40
13115;DHT22;6623;52.120;8.660;2024-02-28T09:33:41;18.90;40.40
13115;DHT22;6623;52.120;8.660;2024-02-28T09:36:06;18.90;40.40
13115;DHT22;6623;52.120;8.660;2024-02-28T09:38:32;18.90;40.40
13115;DHT22;6623;52.120;8.660;2024-02-28T09:41:00;18.90;40.40
13115;DHT22;6623;52.120;8.660;2024-02-28T09:43:30;18.90;40.40
13115;DHT22;6623;52.120;8.660;2024-02-28T09:46:04;18.90;40.40
13115;DHT22;6623;52.120;8.660;2024-02-28T09:48:30;19.00;40.50
13115;DHT22;6623;52.120;8.660;2024-02-28T09:51:00;18.90;40.40
13115;DHT22;6623;52.120;8.660;2024-02-28T09:53:26;18.90;40.40
13115;DHT22;6623;52.120;8.660;2024-02-28T09:55:52;18.90;40.40
13115;DHT22;6623;52.120;8.660;2024-02-28T09:58:19;18.90;40.40
13115;DHT22;6623;52.120;8.660;2024-02-28T10:00:46;18.90;40.40
13115;DHT22;6623;52.120;8.660;2024-02-28T10:03:17;18.90;40.40
13115;DHT22;6623;52.120;8.660;2024-02-28T10:05:46;19.00;40.50
13115;DHT22;6623;52.120;8.660;2024-02-28T10:08:12;18.90;40.40
13115;DHT22;6623;52.120;8.660;2024-02-28T10:10:45;19.00;40.50
13115;DHT22;6623;52.120;8.660;2024-02-28T10:13:11;18.90;40.40
13115;DHT22;6623;52.120;8.660;2024-02-28T10:15:37;18.90;40.40
13115;DHT22;6623;52.120;8.660;2024-02-28T10:18:02;19.00;40.50
13115;DHT22;6623;52.120;8.660;2024-02-28T10:20:30;18.90;40.50
13115;DHT22;6623;52.120;8.660;2024-02-28T10:22:56;18.90;40.50
13115;DHT22;6623;52.120;8.660;2024-02-28T10:25:21;19.00;40.50
13115;DHT22;6623;52.120;8.660;2024-02-28T10:27:47;19.00;40.50
13115;DHT22;6623;52.120;8.660;2024-02-28T10:30:12;19.00;40.50
13115;DHT22;6623;52.120;8.660;2024-02-28T10:32:48;19.00;40.50
13115;DHT22;6623;52.120;8.660;2024-02-28T10:35:17;19.00;40.50
13115;DHT22;6623;52.120;8.660;2024-02-28T10:37:44;19.00;40.60
13115;DHT22;6623;52.120;8.660;2024-02-28T10:40:12;19.00;40.60
13115;DHT22;6623;52.120;8.660;2024-02-28T10:42:42;19.00;40.60
13115;DHT22;6623;52.120;8.660;2024-02-28T10:45:09;19.00;40.60
13115;DHT22;6623;52.120;8.660;2024-02-28T10:47:37;19.00;40.60
13115;DHT22;6623;52.120;8.660;2024-02-28T10:50:03;19.00;40.60
13115;DHT22;6623;52.120;8.660;2024-02-28T10:52:33;19.00;40.60
13115;DHT22;6623;52.120;8.660;2024-02-28T10:54:59;19.00;40.60
13115;DHT22;6623;52.120;8.660;2024-02-28T10:57:27;19.00;40.60
13115;DHT22;6623;52.120;8.660;2024-02-28T10:59:54;19.00;40.60
13115;DHT22;6623;52.120;8.660;2024-02-28T11:02:20;19.00;40.60
13115;DHT22;6623;52.120;8.660;2024-02-28T11:04:47;19.00;40.60
13115;DHT22;6623;52.120;8.660;2024-02-28T11:07:19;19.00;40.70
13115;DHT22;6623;52.120;8.660;2024-02-28T11:09:46;19.00;40.60
13115;DHT22;6623;52.120;8.660;2024-02-28T11:12:28;19.00;40.60
13115;DHT22;6623;52.120;8.660;2024-02-28T11:15:01;19.00;40.70
13115;DHT22;6623;52.120;8.660;2024-02-28T11:17:28;19.00;40.60
13115;DHT22;6623;52.120;8.660;2024-02-28T11:19:54;19.00;40.70
13115;DHT22;6623;52.120;8.660;2024-02-28T11:22:20;19.00;40.70
13115;DHT22;6623;52.120;8.660;2024-02-28T11:24:46;19.00;40.70
13115;DHT22;6623;52.120;8.660;2024-02-28T11:27:12;19.00;40.70
13115;DHT22;6623;52.120;8.660;2024-02-28T11:29:41;19.00;40.70
13115;DHT22;6623;52.120;8.660;2024-02-28T11:32:06;18.90;40.70
13115;DHT22;6623;52.120;8.660;2024-02-28T11:34:34;19.00;40.70
13115;DHT22;6623;52.120;8.660;2024-02-28T11:36:59;19.00;40.70
13115;DHT22;6623;52.120;8.660;2024-02-28T11:39:25;19.00;40.70
13115;DHT22;6623;52.120;8.660;2024-02-28T11:41:52;19.00;40.80
13115;DHT22;6623;52.120;8.660;2024-02-28T11:44:18;19.00;40.80
13115;DHT22;6623;52.120;8.660;2024-02-28T11:46:50;19.00;40.80
13115;DHT22;6623;52.120;8.660;2024-02-28T11:49:16;19.00;40.80
13115;DHT22;6623;52.120;8.660;2024-02-28T11:51:42;19.00;40.80
13115;DHT22;6623;52.120;8.660;2024-02-28T11:54:08;19.00;40.80
13115;DHT22;6623;52.120;8.660;2024-02-28T11:56:38;19.00;40.80
13115;DHT22;6623;52.120;8.660;2024-02-28T11:59:04;19.00;40.80
13115;DHT22;6623;52.120;8.660;2024-02-28T12:01:37;19.00;40.80
13115;DHT22;6623;52.120;8.660;2024-02-28T12:04:04;19.00;40.80
13115;DHT22;6623;52.120;8.660;2024-02-28T12:06:37;19.00;40.80
13115;DHT22;6623;52.120;8.660;2024-02-28T12:09:07;19.00;40.80
13115;DHT22;6623;52.120;8.660;2024-02-28T12:11:36;19.00;40.80
13115;DHT22;6623;52.120;8.660;2024-02-28T12:14:06;19.00;40.80
13115;DHT22;6623;52.120;8.660;2024-02-28T12:16:36;19.00;40.90
13115;DHT22;6623;52.120;8.660;2024-02-28T12:19:13;19.00;40.90
13115;DHT22;6623;52.120;8.660;2024-02-28T12:21:40;19.00;40.90
13115;DHT22;6623;52.120;8.660;2024-02-28T12:24:07;19.00;40.90
13115;DHT22;6623;52.120;8.660;2024-02-28T12:26:34;19.00;40.90
13115;DHT22;6623;52.120;8.660;2024-02-28T12:28:59;19.00;40.90
13115;DHT22;6623;52.120;8.660;2024-02-28T12:31:27;19.00;40.90
13115;DHT22;6623;52.120;8.660;2024-02-28T12:33:52;19.00;40.90
13115;DHT22;6623;52.120;8.660;2024-02-28T12:36:18;19.00;40.90
13115;DHT22;6623;52.120;8.660;2024-02-28T12:38:43;19.00;40.90
13115;DHT22;6623;52.120;8.660;2024-02-28T12:41:09;19.00;41.20
13115;DHT22;6623;52.120;8.660;2024-02-28T12:43:35;19.00;40.90
13115;DHT22;6623;52.120;8.660;2024-02-28T12:46:00;19.00;40.90
13115;DHT22;6623;52.120;8.660;2024-02-28T12:48:26;19.00;40.90
13115;DHT22;6623;52.120;8.660;2024-02-28T12:50:51;19.00;41.00
13115;DHT22;6623;52.120;8.660;2024-02-28T12:53:17;19.00;40.90
13115;DHT22;6623;52.120;8.660;2024-02-28T12:55:42;19.00;41.00
13115;DHT22;6623;52.120;8.660;2024-02-28T12:58:10;19.00;41.00
13115;DHT22;6623;52.120;8.660;2024-02-28T13:00:36;19.00;41.00
13115;DHT22;6623;52.120;8.660;2024-02-28T13:03:02;19.00;41.00
13115;DHT22;6623;52.120;8.660;2024-02-28T13:05:28;19.00;41.00
13115;DHT22;6623;52.120;8.660;2024-02-28T13:07:54;19.00;41.00
13115;DHT22;6623;52.120;8.660;2024-02-28T13:10:19;19.00;41.00
13115;DHT22;6623;52.120;8.660;2024-02-28T13:12:47;19.00;41.00
13115;DHT22;6623;52.120;8.660;2024-02-28T13:15:12;19.00;41.00
13115;DHT22;6623;52.120;8.660;2024-02-28T13:17:38;19.00;41.00
13115;DHT22;6623;52.120;8.660;2024-02-28T13:20:04;19.00;41.00
13115;DHT22;6623;52.120;8.660;2024-02-28T13:22:29;19.00;41.00
13115;DHT22;6623;52.120;8.660;2024-02-28T13:24:55;19.00;41.00
13115;DHT22;6623;52.120;8.660;2024-02-28T13:27:20;19.00;41.00
13115;DHT22;6623;52.120;8.660;2024-02-28T13:29:46;19.00;41.10
13115;DHT22;6623;52.120;8.660;2024-02-28T13:32:12;19.00;41.00
13115;DHT22;6623;52.120;8.660;2024-02-28T13:34:38;19.00;41.10
13115;DHT22;6623;52.120;8.660;2024-02-28T13:37:04;19.00;41.10
13115;DHT22;6623;52.120;8.660;2024-02-28T13:39:29;19.00;41.10
13115;DHT22;6623;52.120;8.660;2024-02-28T13:41:55;19.00;41.10
13115;DHT22;6623;52.120;8.660;2024-02-28T13:44:21;19.00;41.10
13115;DHT22;6623;52.120;8.660;2024-02-28T13:46:46;19.00;41.10
13115;DHT22;6623;52.120;8.660;2024-02-28T13:49:13;19.00;41.10
13115;DHT22;6623;52.120;8.660;2024-02-28T13:51:39;19.00;41.10
13115;DHT22;6623;52.120;8.660;2024-02-28T13:54:05;19.00;41.10
13115;DHT22;6623;52.120;8.660;2024-02-28T13:56:31;19.00;41.10
13115;DHT22;6623;52.120;8.660;2024-02-28T13:58:57;19.00;41.10
13115;DHT22;6623;52.120;8.660;2024-02-28T14:01:23;19.00;41.20
13115;DHT22;6623;52.120;8.660;2024-02-28T14:03:48;19.00;41.20
13115;DHT22;6623;52.120;8.660;2024-02-28T14:06:14;19.00;41.20
13115;DHT22;6623;52.120;8.660;2024-02-28T14:08:39;19.00;41.10
13115;DHT22;6623;52.120;8.660;2024-02-28T14:11:05;19.00;41.10
13115;DHT22;6623;52.120;8.660;2024-02-28T14:13:31;19.00;41.20
13115;DHT22;6623;52.120;8.660;2024-02-28T14:15:56;19.00;41.20
13115;DHT22;6623;52.120;8.660;2024-02-28T14:18:22;19.00;41.20
13115;DHT22;6623;52.120;8.660;2024-02-28T14:20:47;19.00;41.20
13115;DHT22;6623;52.120;8.660;2024-02-28T14:23:13;19.00;41.20
13115;DHT22;6623;52.120;8.660;2024-02-28T14:25:38;19.00;41.20
13115;DHT22;6623;52.120;8.660;2024-02-28T14:28:04;19.00;41.20
13115;DHT22;6623;52.120;8.660;2024-02-28T14:30:30;19.00;41.20
13115;DHT22;6623;52.120;8.660;2024-02-28T14:32:55;19.00;41.20
13115;DHT22;6623;52.120;8.660;2024-02-28T14:35:21;19.00;41.20
13115;DHT22;6623;52.120;8.660;2024-02-28T14:37:46;19.00;41.20
13115;DHT22;6623;52.120;8.660;2024-02-28T14:40:13;19.00;41.20
13115;DHT22;6623;52.120;8.660;2024-02-28T14:42:42;19.00;41.20
13115;DHT22;6623;52.120;8.660;2024-02-28T14:45:08;19.00;41.20
13115;DHT22;6623;52.120;8.660;2024-02-28T14:47:36;19.00;41.30
13115;DHT22;6623;52.120;8.660;2024-02-28T14:50:05;18.90;41.20
13115;DHT22;6623;52.120;8.660;2024-02-28T14:52:31;19.00;41.20
13115;DHT22;6623;52.120;8.660;2024-02-28T14:54:56;19.00;41.30
13115;DHT22;6623;52.120;8.660;2024-02-28T14:57:22;18.90;41.20
13115;DHT22;6623;52.120;8.660;2024-02-28T14:59:47;19.00;41.20
13115;DHT22;6623;52.120;8.660;2024-02-28T15:02:13;19.00;41.30
13115;DHT22;6623;52.120;8.660;2024-02-28T15:04:39;19.00;41.30
13115;DHT22;6623;52.120;8.660;2024-02-28T15:07:05;19.00;41.30
13115;DHT22;6623;52.120;8.660;2024-02-28T15:09:30;19.00;41.30
13115;DHT22;6623;52.120;8.660;2024-02-28T15:11:56;19.00;41.40
13115;DHT22;6623;52.120;8.660;2024-02-28T15:14:22;18.90;41.20
13115;DHT22;6623;52.120;8.660;2024-02-28T15:16:48;19.00;41.30
13115;DHT22;6623;52.120;8.660;2024-02-28T15:19:14;18.90;41.30
13115;DHT22;6623;52.120;8.660;2024-02-28T15:21:39;18.90;41.30
13115;DHT22;6623;52.120;8.660;2024-02-28T15:24:05;19.00;41.30
13115;DHT22;6623;52.120;8.660;2024-02-28T15:26:31;19.00;41.40
13115;DHT22;6623;52.120;8.660;2024-02-28T15:28:56;19.00;41.40
13115;DHT22;6623;52.120;8.660;2024-02-28T15:31:22;18.90;41.30
13115;DHT22;6623;52.120;8.660;2024-02-28T15:33:48;19.00;41.40
13115;DHT22;6623;52.120;8.660;2024-02-28T15:36:14;18.90;41.30
13115;DHT22;6623;52.120;8.660;2024-02-28T15:38:40;18.90;41.30